Time;durP1;ratioP1;P1;durP2;ratioP2;P2;SDS_P1;SDS_P2;PMS_P1;PMS_P2;Temp;Humidity;BMP_temperature;BMP_pressure;BME280_temperature;BME280_humidity;BME280_pressure;Samples;Min_cycle;Max_cycle;Signal;HPM_P1;HPM_P2
2021/07/25 00:02:25;;;;;;;14.60;13.20;;;25.10;67.50;;;;;;5049588;28;20489;-54
2021/07/25 00:04:52;;;;;;;15.50;13.93;;;25.10;67.60;;;;;;5049560;28;20422;-54
2021/07/25 00:07:19;;;;;;;14.20;12.90;;;25.10;67.50;;;;;;5049745;28;20434;-54
2021/07/25 00:09:46;;;;;;;15.70;14.10;;;25.10;67.70;;;;;;5031218;28;20474;-54
2021/07/25 00:12:13;;;;;;;15.00;13.50;;;25.00;67.70;;;;;;5050022;28;20792;-54
2021/07/25 00:14:40;;;;;;;14.73;13.33;;;25.00;67.80;;;;;;5049603;28;20437;-54
2021/07/25 00:17:07;;;;;;;14.50;13.10;;;25.00;67.80;;;;;;5049034;28;20435;-54
2021/07/25 00:19:35;;;;;;;14.50;13.00;;;25.00;67.90;;;;;;5049066;28;20466;-54
2021/07/25 00:22:02;;;;;;;15.20;13.80;;;25.00;67.90;;;;;;5049498;28;20478;-54
2021/07/25 00:24:32;;;;;;;13.50;12.17;;;25.00;67.90;;;;;;5049764;28;20430;-54
2021/07/25 00:27:00;;;;;;;14.63;13.23;;;24.90;67.90;;;;;;5049816;28;20434;-54
2021/07/25 00:29:30;;;;;;;13.67;12.37;;;24.90;68.00;;;;;;5049127;28;20462;-54
2021/07/25 00:31:58;;;;;;;14.07;12.73;;;24.90;68.00;;;;;;5049229;28;20446;-54
2021/07/25 00:34:25;;;;;;;14.80;13.50;;;24.80;68.10;;;;;;5049673;28;20423;-55
2021/07/25 00:36:53;;;;;;;16.60;13.50;;;24.80;68.20;;;;;;5049442;28;20439;-54
2021/07/25 00:39:19;;;;;;;15.90;14.27;;;24.80;68.50;;;;;;5049227;28;20511;-54
2021/07/25 00:41:46;;;;;;;16.80;13.87;;;24.70;68.40;;;;;;5051357;28;20471;-54
2021/07/25 00:44:13;;;;;;;13.53;12.27;;;24.70;68.60;;;;;;5035011;28;20450;-54
2021/07/25 00:46:41;;;;;;;14.60;13.33;;;24.60;69.40;;;;;;5052753;28;20470;-54
2021/07/25 00:49:08;;;;;;;15.03;13.43;;;24.60;68.80;;;;;;5052667;28;20927;-54
2021/07/25 00:51:35;;;;;;;14.40;13.00;;;24.50;68.80;;;;;;5052827;28;20426;-54
2021/07/25 00:54:01;;;;;;;15.60;14.00;;;24.50;69.00;;;;;;5052876;28;20442;-54
2021/07/25 00:56:28;;;;;;;15.30;13.90;;;24.50;69.30;;;;;;5052712;28;20453;-54
2021/07/25 00:58:55;;;;;;;15.47;13.87;;;24.40;69.30;;;;;;5052340;28;20430;-54
2021/07/25 01:01:22;;;;;;;18.73;12.90;;;24.40;69.40;;;;;;5034496;28;20477;-54
2021/07/25 01:04:05;;;;;;;13.93;12.53;;;24.40;69.60;;;;;;5052498;28;20442;-54
2021/07/25 01:06:43;;;;;;;15.07;13.53;;;24.30;69.70;;;;;;5052682;28;20430;-54
2021/07/25 01:09:13;;;;;;;14.60;13.03;;;24.30;69.80;;;;;;5051965;28;20468;-54
2021/07/25 01:11:46;;;;;;;15.30;13.80;;;24.30;70.00;;;;;;5052339;28;20438;-54
2021/07/25 01:14:18;;;;;;;15.30;13.80;;;24.30;70.10;;;;;;5052618;28;20433;-54
2021/07/25 01:16:44;;;;;;;15.23;13.73;;;24.20;70.10;;;;;;5052336;28;20950;-54
2021/07/25 01:19:12;;;;;;;16.10;14.30;;;24.20;70.30;;;;;;5052047;28;20837;-54
2021/07/25 01:21:40;;;;;;;16.47;14.77;;;24.10;70.40;;;;;;5052243;28;20910;-54
2021/07/25 01:24:07;;;;;;;14.50;13.17;;;24.10;71.30;;;;;;5052335;28;20441;-54
2021/07/25 01:26:37;;;;;;;14.87;13.33;;;24.10;70.60;;;;;;5052314;28;20445;-54
2021/07/25 01:29:05;;;;;;;14.23;12.83;;;24.10;70.90;;;;;;5051727;28;20423;-54
2021/07/25 01:31:37;;;;;;;15.20;13.60;;;24.10;71.00;;;;;;5052193;28;20805;-54
2021/07/25 01:34:05;;;;;;;15.43;13.93;;;24.00;71.00;;;;;;5051988;28;20769;-54
2021/07/25 01:36:33;;;;;;;14.13;12.63;;;24.00;71.10;;;;;;5051851;28;20441;-54
2021/07/25 01:39:01;;;;;;;13.60;11.80;;;24.00;71.30;;;;;;5051572;28;20457;-54
2021/07/25 01:41:27;;;;;;;14.43;13.03;;;23.90;71.30;;;;;;5051892;28;20497;-54
2021/07/25 01:43:54;;;;;;;15.07;13.57;;;23.90;71.40;;;;;;5051792;28;20426;-54
2021/07/25 01:46:20;;;;;;;16.43;14.67;;;23.90;71.60;;;;;;5033929;28;20453;-54
2021/07/25 01:48:47;;;;;;;17.13;14.30;;;23.80;71.70;;;;;;5051379;28;20506;-54
2021/07/25 01:51:15;;;;;;;16.17;14.73;;;23.80;71.90;;;;;;5051694;28;20471;-54
2021/07/25 01:53:42;;;;;;;18.23;13.50;;;23.80;72.00;;;;;;5050647;28;20434;-54
2021/07/25 01:56:10;;;;;;;14.60;13.20;;;23.70;72.10;;;;;;5051683;28;20445;-54
2021/07/25 01:58:36;;;;;;;16.40;13.53;;;23.70;72.20;;;;;;5051470;28;20898;-54
2021/07/25 02:01:03;;;;;;;14.47;12.97;;;23.70;72.30;;;;;;5050972;28;20548;-54
2021/07/25 02:03:30;;;;;;;15.03;13.73;;;23.60;72.40;;;;;;5051449;28;20441;-54
2021/07/25 02:05:57;;;;;;;14.93;13.33;;;23.60;72.50;;;;;;5051826;28;20429;-54
2021/07/25 02:08:23;;;;;;;14.80;13.33;;;23.60;72.70;;;;;;5051101;28;20461;-54
2021/07/25 02:10:52;;;;;;;15.90;13.00;;;23.60;72.70;;;;;;5051254;28;20496;-54
2021/07/25 02:13:21;;;;;;;16.30;14.53;;;23.80;73.00;;;;;;5051565;28;20716;-54
2021/07/25 02:15:48;;;;;;;15.93;13.30;;;23.60;73.60;;;;;;5051308;28;20449;-54
2021/07/25 02:18:15;;;;;;;15.07;13.57;;;23.50;72.80;;;;;;5050898;28;20438;-54
2021/07/25 02:20:42;;;;;;;16.53;13.93;;;23.50;72.90;;;;;;5033172;28;20517;-54
2021/07/25 02:23:09;;;;;;;14.67;13.10;;;23.50;73.00;;;;;;5051193;28;20580;-54
2021/07/25 02:25:37;;;;;;;17.93;14.33;;;23.70;73.30;;;;;;5051164;28;20442;-54
2021/07/25 02:28:04;;;;;;;16.63;13.90;;;23.50;73.90;;;;;;5050837;28;21099;-54
2021/07/25 02:30:32;;;;;;;14.33;12.93;;;23.50;73.20;;;;;;5050713;28;20480;-54
2021/07/25 02:32:59;;;;;;;15.47;13.87;;;23.50;73.30;;;;;;5050851;28;20438;-54
2021/07/25 02:35:25;;;;;;;16.10;14.60;;;23.50;73.40;;;;;;5051284;28;20790;-54
2021/07/25 02:37:52;;;;;;;17.53;13.60;;;23.40;73.50;;;;;;5050875;28;20511;-54
2021/07/25 02:40:19;;;;;;;18.20;14.20;;;23.40;73.50;;;;;;5050358;28;20461;-54
2021/07/25 02:42:45;;;;;;;15.90;14.13;;;23.30;73.50;;;;;;5049806;28;20478;-54
2021/07/25 02:45:13;;;;;;;15.57;14.03;;;23.40;73.90;;;;;;5049881;28;20440;-54
2021/07/25 02:47:40;;;;;;;15.30;13.67;;;23.40;74.20;;;;;;5051070;28;20541;-54
2021/07/25 02:50:08;;;;;;;15.33;13.73;;;23.30;74.30;;;;;;5050393;28;20465;-54
2021/07/25 02:52:36;;;;;;;14.70;13.20;;;23.30;74.40;;;;;;5050914;28;20799;-54
2021/07/25 02:55:03;;;;;;;16.83;13.80;;;23.30;74.70;;;;;;5050853;28;20468;-54
2021/07/25 02:57:29;;;;;;;15.43;13.87;;;23.20;74.80;;;;;;5050506;28;20449;-54
2021/07/25 02:59:56;;;;;;;14.93;13.13;;;23.20;75.00;;;;;;5049996;28;20471;-54
2021/07/25 03:02:22;;;;;;;15.73;14.07;;;23.20;75.20;;;;;;5050588;28;20531;-54
2021/07/25 03:04:50;;;;;;;14.83;13.40;;;23.10;75.50;;;;;;5050089;28;20437;-54
2021/07/25 03:07:17;;;;;;;15.73;14.10;;;23.10;75.70;;;;;;5050684;28;20434;-54
2021/07/25 03:09:43;;;;;;;15.50;13.80;;;23.00;75.70;;;;;;5050048;28;20488;-54
2021/07/25 03:12:10;;;;;;;16.70;14.90;;;23.00;76.00;;;;;;5050474;28;20430;-54
2021/07/25 03:14:37;;;;;;;15.07;13.57;;;23.00;76.20;;;;;;5050320;28;20548;-54
2021/07/25 03:17:04;;;;;;;14.93;13.43;;;23.00;76.40;;;;;;5050391;28;20459;-54
2021/07/25 03:19:30;;;;;;;15.73;13.77;;;23.00;76.50;;;;;;5049941;28;20452;-54
2021/07/25 03:21:58;;;;;;;15.57;13.33;;;23.10;76.80;;;;;;5050209;28;20495;-54
2021/07/25 03:24:25;;;;;;;16.90;14.30;;;22.90;76.70;;;;;;5050278;28;20444;-54
2021/07/25 03:26:51;;;;;;;20.33;15.00;;;22.90;77.00;;;;;;5049986;28;20431;-54
2021/07/25 03:29:18;;;;;;;16.77;13.37;;;22.90;77.30;;;;;;5049743;28;20453;-54
2021/07/25 03:31:44;;;;;;;15.40;13.80;;;22.90;78.30;;;;;;5049983;28;20433;-54
2021/07/25 03:34:11;;;;;;;15.60;14.00;;;22.90;77.60;;;;;;5050254;28;20534;-54
2021/07/25 03:36:38;;;;;;;16.03;14.50;;;22.90;77.90;;;;;;5050100;28;20448;-54
2021/07/25 03:39:12;;;;;;;15.50;14.00;;;23.00;78.50;;;;;;5049875;28;20431;-54
2021/07/25 03:41:38;;;;;;;16.70;15.00;;;22.90;78.30;;;;;;5050075;28;20978;-54
2021/07/25 03:44:05;;;;;;;17.40;14.40;;;22.80;78.30;;;;;;5050381;28;20463;-54
2021/07/25 03:46:31;;;;;;;17.03;14.27;;;22.60;78.50;;;;;;5050044;28;20444;-54
2021/07/25 03:48:58;;;;;;;15.53;13.93;;;22.90;78.90;;;;;;5049560;28;20428;-54
2021/07/25 03:51:25;;;;;;;16.70;13.43;;;22.80;78.80;;;;;;5050245;28;20448;-54
2021/07/25 03:53:52;;;;;;;17.47;15.70;;;22.80;79.10;;;;;;5050075;28;20447;-54
2021/07/25 03:56:22;;;;;;;14.90;13.50;;;22.80;79.30;;;;;;5050142;28;20441;-54
2021/07/25 03:58:48;;;;;;;16.80;15.10;;;22.80;79.50;;;;;;5049572;28;20965;-54
2021/07/25 04:01:15;;;;;;;16.50;14.80;;;22.80;79.70;;;;;;5049912;28;20883;-54
2021/07/25 04:03:42;;;;;;;15.10;13.67;;;22.80;79.90;;;;;;5049884;28;20479;-53
2021/07/25 04:06:08;;;;;;;19.57;13.37;;;22.80;80.10;;;;;;5049914;28;20454;-54
2021/07/25 04:08:35;;;;;;;16.00;14.10;;;22.80;80.10;;;;;;5049417;28;20533;-53
2021/07/25 04:11:03;;;;;;;17.70;14.90;;;22.90;80.40;;;;;;5049736;28;20485;-54
2021/07/25 04:13:31;;;;;;;18.70;14.37;;;22.90;80.40;;;;;;5049832;28;20436;-53
2021/07/25 04:15:58;;;;;;;16.37;14.67;;;22.90;80.40;;;;;;5050528;28;20435;-54
2021/07/25 04:18:24;;;;;;;18.17;15.30;;;22.90;80.60;;;;;;5053743;28;20441;-53
2021/07/25 04:20:51;;;;;;;17.17;15.50;;;22.90;80.70;;;;;;5053546;28;20464;-53
2021/07/25 04:23:18;;;;;;;16.10;13.23;;;22.90;80.90;;;;;;5053321;28;20475;-54
2021/07/25 04:25:44;;;;;;;16.23;14.63;;;22.90;80.90;;;;;;5053496;28;20428;-54
2021/07/25 04:28:11;;;;;;;15.77;14.13;;;22.90;81.10;;;;;;5053217;28;20441;-54
2021/07/25 04:30:40;;;;;;;19.83;13.43;;;22.90;81.20;;;;;;5053455;28;20778;-54
2021/07/25 04:33:08;;;;;;;14.90;13.50;;;22.90;81.20;;;;;;5053347;28;20432;-54
2021/07/25 04:35:38;;;;;;;18.20;15.37;;;22.90;81.30;;;;;;5053316;28;20527;-54
2021/07/25 04:38:05;;;;;;;16.57;14.97;;;23.00;81.40;;;;;;5053250;28;20506;-54
2021/07/25 04:40:32;;;;;;;17.37;15.13;;;23.00;81.50;;;;;;5053145;28;20454;-54
2021/07/25 04:43:00;;;;;;;16.47;14.80;;;23.00;81.40;;;;;;5053106;28;20882;-54
2021/07/25 04:45:31;;;;;;;16.50;14.30;;;23.00;81.60;;;;;;5053245;28;20539;-54
2021/07/25 04:48:12;;;;;;;17.37;14.97;;;23.00;81.60;;;;;;5053125;28;20445;-54
2021/07/25 04:50:45;;;;;;;14.97;13.57;;;23.10;82.40;;;;;;5053065;28;20454;-54
2021/07/25 04:53:20;;;;;;;15.00;13.33;;;23.10;81.50;;;;;;5053080;28;20539;-54
2021/07/25 04:55:48;;;;;;;14.90;13.43;;;23.20;81.50;;;;;;5052871;28;20951;-54
2021/07/25 04:58:15;;;;;;;15.97;14.30;;;23.20;81.50;;;;;;5052572;28;20450;-54
2021/07/25 05:00:50;;;;;;;16.73;15.03;;;23.20;81.60;;;;;;5052654;28;20465;-54
2021/07/25 05:03:21;;;;;;;16.50;14.93;;;23.30;81.60;;;;;;5052812;28;20575;-54
2021/07/25 05:05:47;;;;;;;15.43;13.87;;;23.20;81.60;;;;;;5053000;28;20920;-54
2021/07/25 05:08:15;;;;;;;16.20;14.47;;;23.20;81.60;;;;;;5052434;28;20441;-54
2021/07/25 05:10:43;;;;;;;16.20;14.73;;;23.20;81.90;;;;;;5076965;22;20965;-55
2021/07/25 05:13:12;;;;;;;15.20;13.80;;;23.20;81.80;;;;;;5053463;28;20442;-54
2021/07/25 05:15:41;;;;;;;19.27;14.10;;;23.30;81.90;;;;;;5053405;28;20441;-54
2021/07/25 05:18:09;;;;;;;18.43;14.50;;;23.30;81.90;;;;;;5053186;28;20509;-54
2021/07/25 05:20:44;;;;;;;17.13;15.10;;;23.20;82.00;;;;;;5053309;28;20482;-54
2021/07/25 05:23:18;;;;;;;16.27;14.57;;;23.30;82.20;;;;;;5053242;28;20472;-55
2021/07/25 05:25:50;;;;;;;15.77;14.27;;;23.20;82.40;;;;;;5053296;28;20502;-54
2021/07/25 05:28:19;;;;;;;16.53;15.00;;;23.20;82.50;;;;;;5052549;28;20447;-54
2021/07/25 05:30:51;;;;;;;15.10;13.23;;;23.20;82.60;;;;;;5053040;28;20908;-54
2021/07/25 05:33:17;;;;;;;16.73;14.80;;;23.20;82.80;;;;;;5053039;28;20458;-54
2021/07/25 05:35:46;;;;;;;16.40;14.70;;;23.20;82.80;;;;;;5052972;28;20442;-55
2021/07/25 05:38:12;;;;;;;16.23;14.63;;;23.10;82.80;;;;;;5052522;28;20437;-55
2021/07/25 05:40:39;;;;;;;16.80;15.03;;;23.20;82.80;;;;;;5052902;28;20933;-54
2021/07/25 05:43:06;;;;;;;16.30;14.77;;;23.30;82.90;;;;;;5053361;28;20483;-54
2021/07/25 05:45:32;;;;;;;16.10;14.50;;;23.40;82.90;;;;;;5035344;28;20449;-55
2021/07/25 05:47:59;;;;;;;14.77;13.30;;;23.60;82.80;;;;;;5052713;28;20792;-55
2021/07/25 05:50:25;;;;;;;16.53;14.90;;;23.70;82.30;;;;;;5052394;28;20453;-54
2021/07/25 05:52:55;;;;;;;18.47;16.60;;;23.80;82.10;;;;;;5052412;28;20433;-54
2021/07/25 05:55:23;;;;;;;18.03;14.73;;;23.90;81.80;;;;;;5052446;28;20831;-54
2021/07/25 05:57:50;;;;;;;15.30;13.80;;;24.10;81.70;;;;;;5052517;28;20778;-54
2021/07/25 06:00:17;;;;;;;15.43;13.90;;;24.20;81.40;;;;;;5052085;28;20477;-54
2021/07/25 06:02:56;;;;;;;15.23;13.83;;;24.30;81.20;;;;;;5052280;28;20473;-55
2021/07/25 06:05:23;;;;;;;17.37;15.67;;;24.40;81.00;;;;;;5034175;28;20816;-55
2021/07/25 06:07:51;;;;;;;15.63;14.07;;;24.50;80.90;;;;;;5052285;28;20457;-55
2021/07/25 06:10:20;;;;;;;17.10;15.40;;;24.60;80.70;;;;;;5051718;28;21015;-55
2021/07/25 06:12:47;;;;;;;17.63;15.40;;;24.70;80.50;;;;;;5034327;28;20447;-55
2021/07/25 06:15:14;;;;;;;16.67;15.03;;;24.80;80.20;;;;;;5052058;28;20923;-55
2021/07/25 06:17:41;;;;;;;16.07;14.47;;;24.90;79.90;;;;;;5051987;28;20447;-54
2021/07/25 06:20:08;;;;;;;15.50;14.10;;;25.00;79.70;;;;;;5033588;28;20470;-55
2021/07/25 06:22:42;;;;;;;16.57;14.47;;;25.10;79.40;;;;;;5051737;28;20526;-55
2021/07/25 06:25:10;;;;;;;15.70;14.23;;;25.20;79.00;;;;;;5052066;28;20433;-55
2021/07/25 06:27:39;;;;;;;16.33;14.73;;;25.40;78.80;;;;;;5052013;28;20446;-55
2021/07/25 06:30:08;;;;;;;14.63;13.20;;;25.50;78.70;;;;;;5051539;28;20469;-54
2021/07/25 06:32:56;;;;;;;17.33;15.83;;;25.60;79.10;;;;;;5033800;28;20457;-55
2021/07/25 06:35:24;;;;;;;15.83;14.43;;;25.60;77.90;;;;;;5051655;28;20521;-55
2021/07/25 06:37:51;;;;;;;17.30;15.53;;;25.50;77.90;;;;;;5051659;28;20847;-55
2021/07/25 06:40:18;;;;;;;15.33;13.90;;;25.70;77.80;;;;;;5050584;28;20996;-55
2021/07/25 06:42:46;;;;;;;17.17;13.87;;;25.80;77.60;;;;;;5051307;28;20971;-55
2021/07/25 06:45:14;;;;;;;16.27;14.47;;;25.80;77.30;;;;;;5051687;28;20430;-54
2021/07/25 06:47:42;;;;;;;16.50;14.90;;;25.90;77.20;;;;;;5051536;28;20815;-55
2021/07/25 06:50:09;;;;;;;16.00;14.67;;;25.90;77.20;;;;;;5050781;28;20478;-55
2021/07/25 06:52:38;;;;;;;18.00;15.50;;;25.90;76.90;;;;;;5051266;28;20839;-54
2021/07/25 06:55:06;;;;;;;16.50;14.90;;;25.90;76.70;;;;;;5052601;28;20430;-54
2021/07/25 06:57:33;;;;;;;18.60;15.37;;;25.90;76.90;;;;;;5053147;28;20446;-55
2021/07/25 07:00:00;;;;;;;24.00;14.30;;;25.90;76.90;;;;;;5051144;28;20454;-55
2021/07/25 07:02:27;;;;;;;14.57;13.17;;;25.90;77.00;;;;;;5051093;28;20445;-55
2021/07/25 07:04:55;;;;;;;16.70;15.03;;;25.90;77.10;;;;;;5051041;28;20438;-55
2021/07/25 07:07:22;;;;;;;16.00;14.50;;;25.90;76.70;;;;;;5050802;28;20430;-55
2021/07/25 07:09:48;;;;;;;15.63;14.13;;;26.00;76.50;;;;;;5050397;28;20470;-53
2021/07/25 07:12:15;;;;;;;15.70;14.30;;;26.00;77.10;;;;;;5051257;28;20427;-55
2021/07/25 07:14:42;;;;;;;16.50;14.80;;;25.90;77.20;;;;;;5051112;28;20430;-55
2021/07/25 07:17:09;;;;;;;15.10;13.70;;;25.90;77.40;;;;;;5050970;28;20435;-55
2021/07/25 07:19:36;;;;;;;16.47;14.87;;;25.90;77.10;;;;;;5050289;28;20454;-54
2021/07/25 07:22:03;;;;;;;16.33;14.73;;;25.90;77.00;;;;;;5050885;28;20431;-55
2021/07/25 07:24:29;;;;;;;15.10;13.60;;;26.00;76.80;;;;;;5050940;28;20478;-55
2021/07/25 07:26:56;;;;;;;15.97;14.37;;;25.90;76.60;;;;;;5051147;28;20430;-54
2021/07/25 07:29:22;;;;;;;16.40;14.70;;;26.00;76.40;;;;;;5050636;28;20435;-54
2021/07/25 07:31:49;;;;;;;15.00;13.60;;;26.00;76.40;;;;;;5051005;28;20435;-54
2021/07/25 07:34:17;;;;;;;17.00;14.10;;;26.10;76.40;;;;;;5050780;28;20449;-54
2021/07/25 07:36:43;;;;;;;18.27;14.30;;;26.10;76.40;;;;;;5050914;28;20445;-54
2021/07/25 07:39:10;;;;;;;16.03;14.53;;;26.20;76.30;;;;;;5050426;28;20544;-55
2021/07/25 07:41:36;;;;;;;15.90;14.20;;;26.30;76.30;;;;;;5050588;28;20458;-54
2021/07/25 07:44:03;;;;;;;15.00;13.50;;;26.30;76.10;;;;;;5050708;28;20849;-55
2021/07/25 07:46:30;;;;;;;14.77;13.13;;;26.40;75.90;;;;;;5050453;28;20442;-55
2021/07/25 07:48:56;;;;;;;16.53;14.17;;;26.40;75.50;;;;;;5050283;28;20433;-54
2021/07/25 07:51:24;;;;;;;13.60;12.30;;;26.40;74.70;;;;;;5053597;28;20457;-55
2021/07/25 07:53:51;;;;;;;14.23;12.83;;;26.50;74.40;;;;;;5054767;28;20903;-55
2021/07/25 07:56:17;;;;;;;18.77;14.53;;;26.50;74.20;;;;;;5036530;28;20988;-54
2021/07/25 07:58:44;;;;;;;20.23;13.40;;;26.60;74.10;;;;;;5054210;28;20822;-54
2021/07/25 08:01:11;;;;;;;14.10;12.90;;;26.70;73.90;;;;;;5054656;28;20967;-54
2021/07/25 08:03:37;;;;;;;15.00;13.70;;;26.80;73.70;;;;;;5036362;28;20580;-54
2021/07/25 08:06:04;;;;;;;14.67;13.37;;;26.80;73.40;;;;;;5054373;28;20446;-54
2021/07/25 08:08:32;;;;;;;14.60;13.13;;;26.90;73.10;;;;;;5056913;28;20525;-54
2021/07/25 08:10:59;;;;;;;13.97;12.70;;;27.00;73.00;;;;;;5054417;28;21017;-55
2021/07/25 08:13:26;;;;;;;14.93;13.10;;;27.10;72.80;;;;;;5054493;28;20946;-55
2021/07/25 08:15:52;;;;;;;14.50;13.10;;;27.20;72.80;;;;;;5054808;28;20439;-55
2021/07/25 08:18:19;;;;;;;14.30;12.87;;;27.20;72.60;;;;;;5053850;28;20439;-55
2021/07/25 08:20:45;;;;;;;16.27;14.77;;;27.20;72.60;;;;;;5054334;28;20462;-55
2021/07/25 08:23:12;;;;;;;18.03;14.10;;;27.20;72.60;;;;;;5053914;28;20985;-55
2021/07/25 08:25:40;;;;;;;15.63;14.03;;;27.20;72.50;;;;;;5035892;28;20445;-55
2021/07/25 08:28:06;;;;;;;15.70;14.13;;;27.20;72.40;;;;;;5053871;28;20429;-55
2021/07/25 08:30:33;;;;;;;15.50;14.00;;;27.20;72.60;;;;;;5053908;28;20454;-55
2021/07/25 08:33:00;;;;;;;14.73;13.17;;;27.30;72.70;;;;;;5053696;28;20457;-55
2021/07/25 08:35:26;;;;;;;16.53;14.57;;;27.20;72.50;;;;;;5053598;28;20426;-54
2021/07/25 08:37:53;;;;;;;15.03;13.20;;;27.20;72.40;;;;;;5053770;28;20472;-54
2021/07/25 08:40:22;;;;;;;15.43;13.83;;;27.20;72.40;;;;;;5053221;28;20453;-55
2021/07/25 08:43:03;;;;;;;14.90;13.53;;;27.20;72.40;;;;;;5053820;28;20438;-55
2021/07/25 08:45:30;;;;;;;15.47;13.10;;;27.20;72.20;;;;;;5053634;28;20430;-55
2021/07/25 08:48:04;;;;;;;15.23;13.63;;;27.20;72.20;;;;;;5053339;28;20902;-55
2021/07/25 08:50:34;;;;;;;15.63;14.17;;;27.20;72.30;;;;;;5053869;28;20449;-55
2021/07/25 08:53:04;;;;;;;15.07;13.57;;;27.20;72.20;;;;;;5053434;28;20434;-55
2021/07/25 08:55:32;;;;;;;15.50;13.67;;;27.20;72.30;;;;;;5053531;28;20445;-55
2021/07/25 08:58:07;;;;;;;14.93;13.57;;;27.30;72.20;;;;;;5053321;28;20955;-55
2021/07/25 09:00:34;;;;;;;16.53;15.03;;;27.30;72.30;;;;;;5053980;28;21033;-54
2021/07/25 09:03:02;;;;;;;15.70;14.40;;;27.30;72.50;;;;;;5052911;28;20496;-56
2021/07/25 09:05:29;;;;;;;14.27;12.87;;;27.40;72.50;;;;;;5053724;28;20459;-56
2021/07/25 09:07:56;;;;;;;15.33;14.10;;;27.40;73.00;;;;;;5053355;28;20439;-54
2021/07/25 09:10:24;;;;;;;14.93;13.53;;;27.40;73.20;;;;;;5052973;28;20857;-54
2021/07/25 09:12:52;;;;;;;15.37;13.90;;;27.40;72.80;;;;;;5053249;28;20434;-54
2021/07/25 09:15:24;;;;;;;14.30;13.00;;;27.40;72.90;;;;;;5053264;28;20426;-54
2021/07/25 09:17:52;;;;;;;17.50;14.90;;;27.40;72.70;;;;;;5053268;28;20554;-55
2021/07/25 09:20:22;;;;;;;13.97;12.63;;;27.40;72.50;;;;;;5055082;28;20992;-54
2021/07/25 09:23:07;;;;;;;16.40;14.77;;;27.50;72.80;;;;;;5053972;28;20525;-56
2021/07/25 09:25:37;;;;;;;15.57;14.07;;;27.50;72.40;;;;;;5053628;28;20423;-55
2021/07/25 09:28:18;;;;;;;15.17;13.73;;;27.50;72.40;;;;;;5052786;28;20448;-54
2021/07/25 09:30:46;;;;;;;16.40;14.80;;;27.60;72.30;;;;;;5053005;28;20454;-55
2021/07/25 09:33:24;;;;;;;15.00;13.50;;;27.60;72.60;;;;;;5052589;28;20427;-55
2021/07/25 09:35:51;;;;;;;15.63;14.00;;;27.60;72.60;;;;;;5052613;28;20442;-55
2021/07/25 09:38:19;;;;;;;15.10;13.80;;;27.60;73.00;;;;;;5052495;28;20451;-55
2021/07/25 09:40:47;;;;;;;14.47;13.17;;;27.60;73.50;;;;;;5052684;28;20464;-55
2021/07/25 09:43:16;;;;;;;14.60;13.30;;;27.60;73.10;;;;;;5052462;28;20541;-55
2021/07/25 09:46:01;;;;;;;14.70;13.40;;;27.60;72.90;;;;;;5052337;28;20442;-56
2021/07/25 09:48:29;;;;;;;15.67;14.37;;;27.70;73.30;;;;;;5052309;28;20563;-55
2021/07/25 09:50:59;;;;;;;15.40;14.10;;;27.80;73.40;;;;;;5052279;28;20461;-55
2021/07/25 09:53:42;;;;;;;16.00;14.40;;;27.90;73.40;;;;;;5052147;28;20489;-54
2021/07/25 09:56:15;;;;;;;15.07;13.57;;;27.90;73.10;;;;;;5052704;28;20427;-55
2021/07/25 09:58:43;;;;;;;14.97;13.60;;;28.00;72.20;;;;;;5052014;28;20443;-53
2021/07/25 10:01:11;;;;;;;14.17;12.97;;;28.10;71.60;;;;;;5052085;28;20449;-55
2021/07/25 10:03:37;;;;;;;14.27;13.07;;;28.10;70.90;;;;;;5052005;28;20443;-55
2021/07/25 10:06:22;;;;;;;15.57;13.93;;;28.20;70.50;;;;;;5052049;28;20436;-55
2021/07/25 10:09:06;;;;;;;15.53;13.70;;;28.30;69.50;;;;;;5052488;28;20912;-55
2021/07/25 10:11:33;;;;;;;14.10;12.70;;;28.30;69.90;;;;;;5052193;28;20474;-55
2021/07/25 10:14:00;;;;;;;13.60;12.40;;;28.40;70.10;;;;;;5050973;28;20449;-54
2021/07/25 10:16:28;;;;;;;13.07;11.97;;;28.40;69.70;;;;;;5051880;28;20950;-55
2021/07/25 10:18:58;;;;;;;13.87;12.67;;;28.40;69.00;;;;;;5033593;28;20465;-56
2021/07/25 10:21:25;;;;;;;14.57;13.10;;;28.50;68.90;;;;;;5051685;28;20849;-55
2021/07/25 10:23:56;;;;;;;14.10;12.67;;;28.50;68.70;;;;;;5051763;28;20477;-56
2021/07/25 10:26:26;;;;;;;14.80;13.30;;;28.50;68.30;;;;;;5052373;28;20441;-57
2021/07/25 10:28:55;;;;;;;13.80;12.40;;;28.50;68.50;;;;;;5052232;28;20516;-55
2021/07/25 10:31:23;;;;;;;14.37;13.13;;;28.60;68.40;;;;;;5053081;28;20459;-55
2021/07/25 10:33:51;;;;;;;14.90;13.63;;;28.50;68.10;;;;;;5033980;28;20443;-56
2021/07/25 10:36:27;;;;;;;14.60;13.20;;;28.50;68.20;;;;;;5088185;28;20526;-54
2021/07/25 10:38:53;;;;;;;13.53;12.20;;;28.60;68.30;;;;;;5088287;28;20447;-59
2021/07/25 10:41:23;;;;;;;14.47;12.97;;;28.60;68.10;;;;;;5088156;28;20444;-55
2021/07/25 10:43:50;;;;;;;14.30;12.80;;;28.60;67.80;;;;;;5088214;28;20439;-56
2021/07/25 10:46:22;;;;;;;13.93;12.73;;;28.70;68.00;;;;;;5087780;28;20420;-55
2021/07/25 10:49:14;;;;;;;15.80;14.30;;;28.70;68.10;;;;;;5088403;28;20437;-55
2021/07/25 10:52:04;;;;;;;14.40;12.90;;;28.80;68.00;;;;;;5088071;28;20429;-55
2021/07/25 10:54:32;;;;;;;15.70;14.10;;;28.80;67.60;;;;;;5087915;28;20476;-55
2021/07/25 10:57:00;;;;;;;14.60;13.23;;;28.80;67.80;;;;;;5088225;28;20782;-56
2021/07/25 10:59:43;;;;;;;14.50;13.20;;;28.80;68.00;;;;;;5087739;28;20443;-54
2021/07/25 11:02:13;;;;;;;15.70;14.30;;;28.80;67.90;;;;;;5088022;28;20454;-54
2021/07/25 11:05:01;;;;;;;14.17;12.77;;;28.80;67.70;;;;;;5087898;28;20451;-56
2021/07/25 11:07:39;;;;;;;16.43;13.87;;;28.80;67.60;;;;;;5087762;28;20526;-56
2021/07/25 11:10:16;;;;;;;14.57;13.17;;;28.80;67.50;;;;;;5087351;28;20448;-55
2021/07/25 11:13:17;;;;;;;15.13;13.70;;;28.80;67.40;;;;;;5087623;28;20437;-56
2021/07/25 11:15:44;;;;;;;15.00;13.50;;;28.90;67.60;;;;;;5087528;28;20469;-55
2021/07/25 11:18:12;;;;;;;15.30;13.80;;;28.90;67.80;;;;;;5087322;28;20429;-56
2021/07/25 11:20:45;;;;;;;13.70;12.30;;;28.90;67.40;;;;;;5087691;28;20476;-55
2021/07/25 11:23:31;;;;;;;15.47;13.70;;;29.10;67.40;;;;;;5087773;28;20436;-55
2021/07/25 11:25:58;;;;;;;14.67;13.47;;;29.00;67.10;;;;;;5087617;28;20781;-56
2021/07/25 11:28:41;;;;;;;14.83;13.57;;;29.30;66.80;;;;;;5087095;28;20538;-56
2021/07/25 11:31:09;;;;;;;14.87;13.60;;;29.30;66.30;;;;;;5087289;28;20461;-54
2021/07/25 11:33:50;;;;;;;14.97;13.67;;;29.50;66.30;;;;;;5087295;28;20452;-56
2021/07/25 11:36:19;;;;;;;14.80;13.30;;;29.60;66.00;;;;;;5087080;28;20484;-55
2021/07/25 11:38:56;;;;;;;14.70;13.20;;;29.60;65.60;;;;;;5087276;28;20429;-55
2021/07/25 11:41:26;;;;;;;14.67;12.83;;;29.50;64.90;;;;;;5086564;28;20461;-55
2021/07/25 11:43:55;;;;;;;14.87;13.47;;;29.90;65.00;;;;;;5088457;28;20461;-55
2021/07/25 11:46:23;;;;;;;15.10;13.87;;;30.00;64.40;;;;;;5081719;28;20430;-55
2021/07/25 11:49:11;;;;;;;13.77;12.47;;;30.10;63.80;;;;;;5073091;28;20437;-55
2021/07/25 11:51:41;;;;;;;15.67;13.90;;;30.30;63.30;;;;;;5073425;28;20453;-56
2021/07/25 11:54:10;;;;;;;14.57;13.20;;;30.30;63.20;;;;;;5071676;28;20913;-55
2021/07/25 11:56:36;;;;;;;14.83;13.23;;;30.40;62.90;;;;;;5073192;28;20489;-55
2021/07/25 11:59:05;;;;;;;13.20;12.00;;;30.40;63.70;;;;;;5071385;28;20464;-55
2021/07/25 12:01:33;;;;;;;15.17;13.67;;;30.40;62.70;;;;;;5073385;28;21005;-55
2021/07/25 12:04:16;;;;;;;16.30;14.70;;;30.40;62.50;;;;;;5073140;28;20902;-55
2021/07/25 12:06:43;;;;;;;15.37;13.87;;;30.40;63.00;;;;;;5073232;28;20437;-55
2021/07/25 12:09:11;;;;;;;14.90;13.60;;;30.40;62.90;;;;;;5073351;28;20792;-56
2021/07/25 12:11:39;;;;;;;15.40;14.10;;;30.50;62.70;;;;;;5072937;28;20641;-56
2021/07/25 12:14:06;;;;;;;18.67;15.80;;;30.40;62.60;;;;;;5072899;28;20434;-56
2021/07/25 12:16:49;;;;;;;15.70;13.97;;;30.40;62.70;;;;;;5072552;28;20484;-56
2021/07/25 12:19:17;;;;;;;17.33;14.13;;;30.40;62.50;;;;;;5072867;28;20436;-56
2021/07/25 12:21:44;;;;;;;15.10;13.87;;;30.40;62.60;;;;;;5073003;28;20433;-54
2021/07/25 12:24:30;;;;;;;15.07;13.87;;;30.40;62.60;;;;;;5072795;28;20425;-54
2021/07/25 12:26:57;;;;;;;15.40;14.10;;;30.70;62.80;;;;;;5072569;28;20429;-56
2021/07/25 12:29:44;;;;;;;14.60;13.40;;;30.50;62.40;;;;;;5072349;28;20445;-56
2021/07/25 12:32:28;;;;;;;20.47;13.37;;;30.70;63.00;;;;;;5072680;28;20726;-56
2021/07/25 12:35:13;;;;;;;15.33;13.87;;;30.70;61.60;;;;;;5070867;28;20485;-56
2021/07/25 12:37:45;;;;;;;15.47;14.07;;;30.80;61.40;;;;;;5072664;28;20425;-56
2021/07/25 12:40:16;;;;;;;15.03;13.67;;;30.90;61.50;;;;;;5072050;28;20969;-56